LPE2211 SPJC-SPJL
Flight info
| Callsign | LPE2211 |
|---|---|
| Flight time | 1h 14m |
| Altitude | 39000 |
| Route | VUPUD UT336 AND UV18 NUXON |
| Aircraft | A319/M-SDE3FGHIRWY/LB1 |
Departure
| Time | 2026-04-23 20:51 |
|---|---|
| Airport | Jorge Chávez International Airport (SPJC) |
Arrival
| Time | 2026-04-23 22:06 |
|---|---|
| Airport | Inca Manco Capac International Airport (SPJL) |
| Time | Latitude | Longitude | Altitude | Speed | Heading |
|---|---|---|---|---|---|
| 2026-04-23 20:20 | -12.02740 | -77.11438 | 76 ft | 0 kts | 237° |
| 2026-04-23 20:27 | -12.02740 | -77.11437 | 76 ft | 0 kts | 237° |
| 2026-04-23 20:43 | -12.02736 | -77.11431 | 76 ft | 4 kts | 247° |
| 2026-04-23 20:43 | -12.02725 | -77.11409 | 68 ft | 4 kts | 233° |
| 2026-04-23 20:44 | -12.02706 | -77.11391 | 69 ft | 4 kts | 200° |
| 2026-04-23 20:44 | -12.02683 | -77.11391 | 66 ft | 4 kts | 144° |
| 2026-04-23 20:44 | -12.02666 | -77.11411 | 65 ft | 4 kts | 115° |
| 2026-04-23 20:44 | -12.02659 | -77.11436 | 70 ft | 4 kts | 82° |
| 2026-04-23 20:45 | -12.02660 | -77.11450 | 75 ft | 3 kts | 347° |
| 2026-04-23 20:45 | -12.02661 | -77.11450 | 72 ft | 0 kts | 334° |
| 2026-04-23 20:45 | -12.02661 | -77.11451 | 75 ft | 0 kts | 334° |
| 2026-04-23 20:46 | -12.02661 | -77.11450 | 75 ft | 0 kts | 334° |
| 2026-04-23 20:47 | -12.02651 | -77.11455 | 72 ft | 4 kts | 334° |
| 2026-04-23 20:47 | -12.02609 | -77.11476 | 74 ft | 10 kts | 334° |
| 2026-04-23 20:47 | -12.02531 | -77.11514 | 72 ft | 15 kts | 334° |
| 2026-04-23 20:47 | -12.02417 | -77.11571 | 70 ft | 21 kts | 334° |
| 2026-04-23 20:48 | -12.02265 | -77.11646 | 61 ft | 27 kts | 334° |
| 2026-04-23 20:48 | -12.02072 | -77.11741 | 59 ft | 34 kts | 334° |
| 2026-04-23 20:48 | -12.01820 | -77.11801 | 52 ft | 41 kts | 349° |
| 2026-04-23 20:48 | -12.01572 | -77.11908 | 52 ft | 32 kts | 334° |
| 2026-04-23 20:49 | -12.01371 | -77.12010 | 48 ft | 34 kts | 334° |
| 2026-04-23 20:49 | -12.01198 | -77.12149 | 44 ft | 35 kts | 319° |
| 2026-04-23 20:49 | -12.01027 | -77.12255 | 41 ft | 20 kts | 332° |
| 2026-04-23 20:49 | -12.00959 | -77.12291 | 38 ft | 8 kts | 332° |
| 2026-04-23 20:50 | -12.00895 | -77.12325 | 37 ft | 13 kts | 332° |
| 2026-04-23 20:50 | -12.00826 | -77.12270 | 34 ft | 16 kts | 70° |
| 2026-04-23 20:50 | -12.00796 | -77.12196 | 32 ft | 11 kts | 56° |
| 2026-04-23 20:50 | -12.00782 | -77.12123 | 34 ft | 11 kts | 146° |
| 2026-04-23 20:51 | -12.00939 | -77.12046 | 35 ft | 54 kts | 154° |
| 2026-04-23 20:51 | -12.01470 | -77.11785 | 52 ft | 113 kts | 154° |
| 2026-04-23 20:51 | -12.02332 | -77.11359 | 130 ft | 152 kts | 155° |
| 2026-04-23 20:51 | -12.03271 | -77.10893 | 746 ft | 149 kts | 156° |
| 2026-04-23 20:52 | -12.04203 | -77.10433 | 1322 ft | 149 kts | 156° |
| 2026-04-23 20:52 | -12.04822 | -77.10129 | 1683 ft | 149 kts | 156° |
| 2026-04-23 20:52 | -12.05755 | -77.09670 | 2203 ft | 150 kts | 155° |
| 2026-04-23 20:52 | -12.07004 | -77.09054 | 2850 ft | 151 kts | 154° |
| 2026-04-23 20:53 | -12.07959 | -77.08584 | 3301 ft | 154 kts | 154° |
| 2026-04-23 20:53 | -12.08636 | -77.08250 | 3470 ft | 168 kts | 154° |
| 2026-04-23 20:53 | -12.09755 | -77.07696 | 3700 ft | 189 kts | 154° |
| 2026-04-23 20:53 | -12.10989 | -77.07087 | 3917 ft | 211 kts | 154° |
| 2026-04-23 20:54 | -12.12395 | -77.06391 | 4183 ft | 237 kts | 154° |
| 2026-04-23 20:54 | -12.13955 | -77.05620 | 4566 ft | 260 kts | 154° |
| 2026-04-23 20:54 | -12.15624 | -77.04796 | 5242 ft | 271 kts | 154° |
| 2026-04-23 20:54 | -12.17335 | -77.03952 | 6046 ft | 276 kts | 154° |
| 2026-04-23 20:55 | -12.19075 | -77.03092 | 6839 ft | 280 kts | 154° |
| 2026-04-23 20:55 | -12.20839 | -77.02221 | 7624 ft | 284 kts | 154° |
| 2026-04-23 20:55 | -12.22617 | -77.01306 | 8350 ft | 288 kts | 148° |
| 2026-04-23 20:55 | -12.24172 | -76.99999 | 9041 ft | 292 kts | 131° |
| 2026-04-23 20:56 | -12.25325 | -76.98277 | 9726 ft | 296 kts | 116° |
| 2026-04-23 20:56 | -12.26232 | -76.96365 | 10237 ft | 307 kts | 115° |
| 2026-04-23 20:56 | -12.27202 | -76.94332 | 10383 ft | 329 kts | 116° |
| 2026-04-23 20:56 | -12.28239 | -76.92173 | 10692 ft | 342 kts | 116° |
| 2026-04-23 20:57 | -12.29299 | -76.89976 | 11239 ft | 347 kts | 116° |
| 2026-04-23 20:57 | -12.30377 | -76.87747 | 11853 ft | 351 kts | 116° |
| 2026-04-23 20:57 | -12.31466 | -76.85505 | 12466 ft | 354 kts | 116° |
| 2026-04-23 20:57 | -12.32564 | -76.83240 | 13071 ft | 356 kts | 116° |
| 2026-04-23 20:58 | -12.33669 | -76.80954 | 13663 ft | 359 kts | 116° |
| 2026-04-23 20:58 | -12.34778 | -76.78654 | 14244 ft | 362 kts | 116° |
| 2026-04-23 20:58 | -12.35881 | -76.76365 | 14795 ft | 365 kts | 116° |
| 2026-04-23 20:58 | -12.37010 | -76.74024 | 15342 ft | 368 kts | 116° |
| 2026-04-23 20:59 | -12.38147 | -76.71662 | 15874 ft | 370 kts | 116° |
| 2026-04-23 20:59 | -12.39290 | -76.69289 | 16403 ft | 373 kts | 116° |
| 2026-04-23 20:59 | -12.40439 | -76.66900 | 16910 ft | 376 kts | 116° |
| 2026-04-23 20:59 | -12.41596 | -76.64496 | 17433 ft | 378 kts | 116° |
| 2026-04-23 21:00 | -12.42766 | -76.62066 | 17921 ft | 381 kts | 116° |
| 2026-04-23 21:00 | -12.43943 | -76.59628 | 18419 ft | 384 kts | 116° |
| 2026-04-23 21:00 | -12.45132 | -76.57172 | 18904 ft | 387 kts | 116° |
| 2026-04-23 21:00 | -12.46333 | -76.54699 | 19400 ft | 389 kts | 116° |
| 2026-04-23 21:01 | -12.47541 | -76.52215 | 19864 ft | 392 kts | 116° |
| 2026-04-23 21:01 | -12.48756 | -76.49711 | 20324 ft | 394 kts | 116° |
| 2026-04-23 21:01 | -12.49977 | -76.47193 | 20775 ft | 396 kts | 116° |
| 2026-04-23 21:01 | -12.51205 | -76.44658 | 21201 ft | 399 kts | 116° |
| 2026-04-23 21:02 | -12.52442 | -76.42103 | 21630 ft | 401 kts | 116° |
| 2026-04-23 21:02 | -12.53669 | -76.39569 | 22030 ft | 404 kts | 116° |
| 2026-04-23 21:02 | -12.54918 | -76.36982 | 22421 ft | 406 kts | 116° |
| 2026-04-23 21:02 | -12.56175 | -76.34382 | 22806 ft | 408 kts | 116° |
| 2026-04-23 21:03 | -12.57435 | -76.31771 | 23168 ft | 410 kts | 116° |
| 2026-04-23 21:03 | -12.58704 | -76.29142 | 23514 ft | 412 kts | 115° |
| 2026-04-23 21:03 | -12.59977 | -76.26505 | 23843 ft | 414 kts | 116° |
| 2026-04-23 21:03 | -12.61260 | -76.23851 | 24155 ft | 416 kts | 116° |
| 2026-04-23 21:04 | -12.62554 | -76.21179 | 24469 ft | 419 kts | 116° |
| 2026-04-23 21:04 | -12.63833 | -76.18538 | 24781 ft | 421 kts | 115° |
| 2026-04-23 21:04 | -12.65150 | -76.15808 | 25105 ft | 422 kts | 115° |
| 2026-04-23 21:04 | -12.66433 | -76.13140 | 25411 ft | 424 kts | 115° |
| 2026-04-23 21:05 | -12.67741 | -76.10418 | 25715 ft | 426 kts | 115° |
| 2026-04-23 21:05 | -12.69058 | -76.07686 | 26009 ft | 428 kts | 115° |
| 2026-04-23 21:05 | -12.70380 | -76.04952 | 26307 ft | 430 kts | 115° |
| 2026-04-23 21:05 | -12.71710 | -76.02195 | 26608 ft | 432 kts | 115° |
| 2026-04-23 21:06 | -12.73044 | -75.99422 | 26897 ft | 435 kts | 115° |
| 2026-04-23 21:06 | -12.74382 | -75.96639 | 27175 ft | 437 kts | 115° |
| 2026-04-23 21:06 | -12.75721 | -75.93841 | 27438 ft | 439 kts | 114° |
| 2026-04-23 21:06 | -12.77056 | -75.91022 | 27700 ft | 441 kts | 114° |
| 2026-04-23 21:07 | -12.78395 | -75.88185 | 27977 ft | 442 kts | 114° |
| 2026-04-23 21:07 | -12.79735 | -75.85342 | 28212 ft | 444 kts | 114° |
| 2026-04-23 21:07 | -12.81082 | -75.82480 | 28474 ft | 446 kts | 114° |
| 2026-04-23 21:07 | -12.82419 | -75.79643 | 28724 ft | 448 kts | 114° |
| 2026-04-23 21:08 | -12.83775 | -75.76763 | 28987 ft | 450 kts | 114° |
| 2026-04-23 21:08 | -12.85144 | -75.73860 | 29247 ft | 452 kts | 114° |
| 2026-04-23 21:08 | -12.86516 | -75.70958 | 29500 ft | 453 kts | 114° |
| 2026-04-23 21:08 | -12.87898 | -75.68041 | 29732 ft | 455 kts | 114° |
| 2026-04-23 21:09 | -12.89280 | -75.65120 | 29976 ft | 457 kts | 114° |
| 2026-04-23 21:09 | -12.90665 | -75.62179 | 30193 ft | 459 kts | 114° |
| 2026-04-23 21:09 | -12.92060 | -75.59218 | 30427 ft | 461 kts | 114° |
| 2026-04-23 21:09 | -12.93439 | -75.56292 | 30659 ft | 462 kts | 114° |
| 2026-04-23 21:10 | -12.94843 | -75.53315 | 30864 ft | 464 kts | 114° |
| 2026-04-23 21:10 | -12.96251 | -75.50333 | 31080 ft | 466 kts | 114° |
| 2026-04-23 21:10 | -12.97664 | -75.47334 | 31291 ft | 467 kts | 114° |
| 2026-04-23 21:10 | -12.99073 | -75.44329 | 31525 ft | 468 kts | 114° |
| 2026-04-23 21:11 | -13.00482 | -75.41323 | 31825 ft | 468 kts | 114° |
| 2026-04-23 21:11 | -13.01891 | -75.38320 | 32130 ft | 467 kts | 113° |
| 2026-04-23 21:11 | -13.03300 | -75.35316 | 32432 ft | 466 kts | 113° |
| 2026-04-23 21:11 | -13.04708 | -75.32321 | 32731 ft | 466 kts | 113° |
| 2026-04-23 21:12 | -13.06120 | -75.29324 | 33032 ft | 466 kts | 113° |
| 2026-04-23 21:12 | -13.07514 | -75.26365 | 33334 ft | 466 kts | 113° |
| 2026-04-23 21:12 | -13.08918 | -75.23376 | 33639 ft | 465 kts | 113° |
| 2026-04-23 21:12 | -13.10321 | -75.20384 | 33968 ft | 464 kts | 113° |
| 2026-04-23 21:13 | -13.11720 | -75.17395 | 34291 ft | 464 kts | 113° |
| 2026-04-23 21:13 | -13.13117 | -75.14407 | 34598 ft | 463 kts | 113° |
| 2026-04-23 21:13 | -13.14510 | -75.11428 | 34901 ft | 463 kts | 113° |
| 2026-04-23 21:13 | -13.15903 | -75.08453 | 35193 ft | 463 kts | 113° |
| 2026-04-23 21:14 | -13.17299 | -75.05476 | 35484 ft | 462 kts | 113° |
| 2026-04-23 21:14 | -13.18693 | -75.02508 | 35755 ft | 462 kts | 113° |
| 2026-04-23 21:14 | -13.20086 | -74.99541 | 36030 ft | 461 kts | 113° |
| 2026-04-23 21:14 | -13.21474 | -74.96580 | 36288 ft | 461 kts | 113° |
| 2026-04-23 21:15 | -13.22860 | -74.93618 | 36538 ft | 460 kts | 113° |
| 2026-04-23 21:15 | -13.24243 | -74.90656 | 36784 ft | 460 kts | 112° |
| 2026-04-23 21:15 | -13.25625 | -74.87693 | 37087 ft | 458 kts | 113° |
| 2026-04-23 21:15 | -13.26985 | -74.84789 | 37394 ft | 457 kts | 112° |
| 2026-04-23 21:16 | -13.28357 | -74.81859 | 37706 ft | 454 kts | 112° |
| 2026-04-23 21:16 | -13.29725 | -74.78936 | 37995 ft | 453 kts | 112° |
| 2026-04-23 21:16 | -13.31069 | -74.76018 | 38229 ft | 451 kts | 110° |
| 2026-04-23 21:16 | -13.32097 | -74.72988 | 38441 ft | 448 kts | 103° |
| 2026-04-23 21:17 | -13.32986 | -74.69918 | 38631 ft | 448 kts | 103° |
| 2026-04-23 21:17 | -13.33884 | -74.66843 | 38829 ft | 448 kts | 103° |
| 2026-04-23 21:17 | -13.34774 | -74.63812 | 39001 ft | 448 kts | 104° |
| 2026-04-23 21:17 | -13.35677 | -74.60748 | 39199 ft | 448 kts | 104° |
| 2026-04-23 21:18 | -13.37485 | -74.54615 | 39302 ft | 449 kts | 104° |
| 2026-04-23 21:18 | -13.39289 | -74.48466 | 39304 ft | 449 kts | 103° |
| 2026-04-23 21:19 | -13.41084 | -74.42316 | 39313 ft | 449 kts | 103° |
| 2026-04-23 21:19 | -13.42867 | -74.36191 | 39311 ft | 449 kts | 103° |
| 2026-04-23 21:20 | -13.44670 | -74.30025 | 39312 ft | 450 kts | 104° |
| 2026-04-23 21:20 | -13.46474 | -74.23869 | 39314 ft | 450 kts | 104° |
| 2026-04-23 21:21 | -13.48276 | -74.17706 | 39315 ft | 450 kts | 104° |
| 2026-04-23 21:21 | -13.50067 | -74.11568 | 39318 ft | 450 kts | 104° |
| 2026-04-23 21:22 | -13.51864 | -74.05402 | 39319 ft | 450 kts | 104° |
| 2026-04-23 21:22 | -13.53658 | -73.99227 | 39328 ft | 450 kts | 103° |
| 2026-04-23 21:23 | -13.55448 | -73.93058 | 39336 ft | 451 kts | 103° |
| 2026-04-23 21:23 | -13.57230 | -73.86923 | 39355 ft | 451 kts | 104° |
| 2026-04-23 21:24 | -13.59019 | -73.80752 | 39373 ft | 451 kts | 103° |
| 2026-04-23 21:24 | -13.60804 | -73.74580 | 39380 ft | 450 kts | 103° |
| 2026-04-23 21:25 | -13.62582 | -73.68404 | 39414 ft | 450 kts | 103° |
| 2026-04-23 21:25 | -13.64371 | -73.62224 | 39427 ft | 450 kts | 104° |
| 2026-04-23 21:26 | -13.66167 | -73.56036 | 39440 ft | 450 kts | 103° |
| 2026-04-23 21:26 | -13.67941 | -73.49897 | 39470 ft | 450 kts | 103° |
| 2026-04-23 21:27 | -13.69719 | -73.43717 | 39463 ft | 450 kts | 104° |
| 2026-04-23 21:27 | -13.71647 | -73.37586 | 39473 ft | 452 kts | 111° |
| 2026-04-23 21:28 | -13.74691 | -73.31897 | 39482 ft | 454 kts | 117° |
| 2026-04-23 21:28 | -13.77835 | -73.26245 | 39487 ft | 454 kts | 117° |
| 2026-04-23 21:29 | -13.80944 | -73.20628 | 39486 ft | 454 kts | 117° |
| 2026-04-23 21:29 | -13.84073 | -73.14970 | 39489 ft | 454 kts | 117° |
| 2026-04-23 21:30 | -13.87186 | -73.09322 | 39487 ft | 453 kts | 117° |
| 2026-04-23 21:30 | -13.90297 | -73.03677 | 39487 ft | 453 kts | 117° |
| 2026-04-23 21:31 | -13.93422 | -72.98028 | 39487 ft | 453 kts | 117° |
| 2026-04-23 21:31 | -13.96541 | -72.92388 | 39488 ft | 453 kts | 117° |
| 2026-04-23 21:32 | -13.99634 | -72.86765 | 39488 ft | 453 kts | 117° |
| 2026-04-23 21:32 | -14.02740 | -72.81116 | 39484 ft | 453 kts | 117° |
| 2026-04-23 21:33 | -14.05852 | -72.75470 | 39478 ft | 453 kts | 117° |
| 2026-04-23 21:33 | -14.08975 | -72.69814 | 39482 ft | 453 kts | 117° |
| 2026-04-23 21:34 | -14.12082 | -72.64165 | 39473 ft | 453 kts | 117° |
| 2026-04-23 21:34 | -14.15186 | -72.58507 | 39474 ft | 453 kts | 117° |
| 2026-04-23 21:35 | -14.18269 | -72.52886 | 39476 ft | 453 kts | 117° |
| 2026-04-23 21:35 | -14.21366 | -72.47225 | 39462 ft | 454 kts | 117° |
| 2026-04-23 21:36 | -14.26028 | -72.38722 | 39470 ft | 453 kts | 117° |
| 2026-04-23 21:37 | -14.28613 | -72.34017 | 39462 ft | 453 kts | 117° |
| 2026-04-23 21:37 | -14.32217 | -72.27436 | 39467 ft | 453 kts | 117° |
| 2026-04-23 21:38 | -14.34808 | -72.22687 | 39456 ft | 453 kts | 117° |
| 2026-04-23 21:38 | -14.37880 | -72.17061 | 39455 ft | 452 kts | 117° |
| 2026-04-23 21:39 | -14.40973 | -72.11404 | 39455 ft | 452 kts | 117° |
| 2026-04-23 21:39 | -14.44067 | -72.05748 | 39451 ft | 452 kts | 117° |
| 2026-04-23 21:40 | -14.47155 | -72.00082 | 39448 ft | 453 kts | 117° |
| 2026-04-23 21:40 | -14.50242 | -71.94420 | 39461 ft | 453 kts | 117° |
| 2026-04-23 21:41 | -14.53329 | -71.88753 | 39439 ft | 452 kts | 117° |
| 2026-04-23 21:41 | -14.56414 | -71.83082 | 39407 ft | 452 kts | 117° |
| 2026-04-23 21:42 | -14.59473 | -71.77461 | 39397 ft | 452 kts | 117° |
| 2026-04-23 21:42 | -14.62558 | -71.71793 | 39387 ft | 452 kts | 117° |
| 2026-04-23 21:43 | -14.65643 | -71.66125 | 39382 ft | 452 kts | 117° |
| 2026-04-23 21:43 | -14.68713 | -71.60446 | 39377 ft | 453 kts | 117° |
| 2026-04-23 21:44 | -14.71772 | -71.54787 | 39376 ft | 453 kts | 117° |
| 2026-04-23 21:44 | -14.74859 | -71.49097 | 39384 ft | 453 kts | 117° |
| 2026-04-23 21:45 | -14.77940 | -71.43412 | 39392 ft | 454 kts | 117° |
| 2026-04-23 21:45 | -14.81027 | -71.37721 | 39399 ft | 454 kts | 117° |
| 2026-04-23 21:46 | -14.84110 | -71.32015 | 39403 ft | 455 kts | 117° |
| 2026-04-23 21:46 | -14.87190 | -71.26301 | 39412 ft | 455 kts | 117° |
| 2026-04-23 21:47 | -14.90276 | -71.20588 | 39415 ft | 455 kts | 117° |
| 2026-04-23 21:47 | -14.93348 | -71.14898 | 39420 ft | 456 kts | 117° |
| 2026-04-23 21:48 | -14.96440 | -71.09160 | 39429 ft | 456 kts | 117° |
| 2026-04-23 21:48 | -14.99527 | -71.03429 | 39435 ft | 456 kts | 117° |
| 2026-04-23 21:49 | -15.02616 | -70.97689 | 39438 ft | 457 kts | 117° |
| 2026-04-23 21:49 | -15.05707 | -70.91933 | 39441 ft | 457 kts | 117° |
| 2026-04-23 21:49 | -15.07233 | -70.89091 | 39172 ft | 458 kts | 117° |
| 2026-04-23 21:50 | -15.08816 | -70.86147 | 38099 ft | 466 kts | 117° |
| 2026-04-23 21:50 | -15.10381 | -70.83239 | 37130 ft | 470 kts | 117° |
| 2026-04-23 21:50 | -15.11982 | -70.80271 | 36173 ft | 473 kts | 117° |
| 2026-04-23 21:50 | -15.13585 | -70.77299 | 35182 ft | 475 kts | 117° |
| 2026-04-23 21:51 | -15.15196 | -70.74302 | 34060 ft | 478 kts | 117° |
| 2026-04-23 21:51 | -15.16821 | -70.71268 | 32923 ft | 481 kts | 117° |
| 2026-04-23 21:51 | -15.18436 | -70.68244 | 31953 ft | 479 kts | 118° |
| 2026-04-23 21:51 | -15.20042 | -70.65231 | 30983 ft | 476 kts | 118° |
| 2026-04-23 21:52 | -15.21637 | -70.62247 | 30123 ft | 471 kts | 118° |
| 2026-04-23 21:52 | -15.23215 | -70.59299 | 29296 ft | 464 kts | 118° |
| 2026-04-23 21:52 | -15.24768 | -70.56399 | 28484 ft | 457 kts | 118° |
| 2026-04-23 21:52 | -15.26299 | -70.53538 | 27683 ft | 451 kts | 118° |
| 2026-04-23 21:53 | -15.27812 | -70.50710 | 26873 ft | 445 kts | 118° |
| 2026-04-23 21:53 | -15.29299 | -70.47931 | 26019 ft | 439 kts | 118° |
| 2026-04-23 21:53 | -15.30767 | -70.45186 | 25404 ft | 428 kts | 118° |
| 2026-04-23 21:53 | -15.32167 | -70.42566 | 24927 ft | 415 kts | 118° |
| 2026-04-23 21:54 | -15.33544 | -70.39988 | 24462 ft | 404 kts | 118° |
| 2026-04-23 21:54 | -15.34889 | -70.37469 | 24005 ft | 394 kts | 119° |
| 2026-04-23 21:54 | -15.36210 | -70.34999 | 23550 ft | 384 kts | 119° |
| 2026-04-23 21:54 | -15.37489 | -70.32605 | 23127 ft | 376 kts | 118° |
| 2026-04-23 21:55 | -15.38754 | -70.30232 | 22680 ft | 377 kts | 118° |
| 2026-04-23 21:55 | -15.40023 | -70.27846 | 22213 ft | 377 kts | 118° |
| 2026-04-23 21:55 | -15.41271 | -70.25496 | 21755 ft | 377 kts | 118° |
| 2026-04-23 21:55 | -15.42540 | -70.23112 | 21281 ft | 378 kts | 118° |
| 2026-04-23 21:56 | -15.43811 | -70.20728 | 20787 ft | 378 kts | 118° |
| 2026-04-23 21:56 | -15.45077 | -70.18347 | 20300 ft | 377 kts | 118° |
| 2026-04-23 21:56 | -15.46381 | -70.15992 | 19798 ft | 377 kts | 123° |
| 2026-04-23 21:56 | -15.48040 | -70.13890 | 19289 ft | 377 kts | 135° |
| 2026-04-23 21:57 | -15.49933 | -70.12036 | 18831 ft | 368 kts | 136° |
| 2026-04-23 21:57 | -15.51743 | -70.10267 | 18734 ft | 347 kts | 136° |
| 2026-04-23 21:57 | -15.53455 | -70.08588 | 18624 ft | 329 kts | 136° |
| 2026-04-23 21:57 | -15.55076 | -70.06990 | 18480 ft | 315 kts | 136° |
| 2026-04-23 21:58 | -15.56660 | -70.05430 | 17937 ft | 312 kts | 136° |
| 2026-04-23 21:58 | -15.58180 | -70.03935 | 17696 ft | 290 kts | 136° |
| 2026-04-23 21:58 | -15.59584 | -70.02552 | 17550 ft | 268 kts | 136° |
| 2026-04-23 21:58 | -15.60912 | -70.01246 | 17437 ft | 260 kts | 136° |
| 2026-04-23 21:59 | -15.62086 | -69.99857 | 17274 ft | 253 kts | 121° |
| 2026-04-23 21:59 | -15.62691 | -69.98154 | 17136 ft | 253 kts | 97° |
| 2026-04-23 21:59 | -15.62633 | -69.96366 | 17037 ft | 241 kts | 76° |
| 2026-04-23 22:00 | -15.60965 | -69.93669 | 16730 ft | 212 kts | 37° |
| 2026-04-23 22:00 | -15.59715 | -69.92963 | 16615 ft | 199 kts | 19° |
| 2026-04-23 22:00 | -15.58415 | -69.92694 | 16505 ft | 189 kts | 2° |
| 2026-04-23 22:00 | -15.57125 | -69.92817 | 16408 ft | 186 kts | 346° |
| 2026-04-23 22:01 | -15.55928 | -69.93307 | 16304 ft | 186 kts | 330° |
| 2026-04-23 22:01 | -15.54912 | -69.94126 | 16202 ft | 186 kts | 314° |
| 2026-04-23 22:01 | -15.54159 | -69.95213 | 16104 ft | 186 kts | 297° |
| 2026-04-23 22:01 | -15.53701 | -69.96474 | 15986 ft | 186 kts | 288° |
| 2026-04-23 22:02 | -15.53290 | -69.97751 | 15869 ft | 187 kts | 291° |
| 2026-04-23 22:02 | -15.52830 | -69.99018 | 15606 ft | 186 kts | 292° |
| 2026-04-23 22:02 | -15.52369 | -70.00233 | 15345 ft | 176 kts | 293° |
| 2026-04-23 22:02 | -15.51930 | -70.01395 | 15103 ft | 171 kts | 293° |
| 2026-04-23 22:03 | -15.51505 | -70.02524 | 14858 ft | 167 kts | 294° |
| 2026-04-23 22:03 | -15.51086 | -70.03638 | 14641 ft | 165 kts | 294° |
| 2026-04-23 22:03 | -15.50676 | -70.04729 | 14420 ft | 164 kts | 294° |
| 2026-04-23 22:03 | -15.50266 | -70.05828 | 14197 ft | 163 kts | 294° |
| 2026-04-23 22:04 | -15.49859 | -70.06923 | 13970 ft | 162 kts | 294° |
| 2026-04-23 22:04 | -15.49453 | -70.08014 | 13747 ft | 162 kts | 294° |
| 2026-04-23 22:04 | -15.49049 | -70.09098 | 13527 ft | 161 kts | 294° |
| 2026-04-23 22:04 | -15.48705 | -70.10203 | 13302 ft | 161 kts | 287° |
| 2026-04-23 22:05 | -15.48431 | -70.11330 | 13111 ft | 161 kts | 290° |
| 2026-04-23 22:05 | -15.48015 | -70.12401 | 12906 ft | 160 kts | 295° |
| 2026-04-23 22:05 | -15.47591 | -70.13466 | 12708 ft | 160 kts | 293° |
| 2026-04-23 22:05 | -15.47192 | -70.14516 | 12564 ft | 145 kts | 292° |
| 2026-04-23 22:06 | -15.46867 | -70.15339 | 12564 ft | 99 kts | 292° |
| 2026-04-23 22:06 | -15.46674 | -70.15833 | 12564 ft | 49 kts | 292° |
| 2026-04-23 22:06 | -15.46574 | -70.16051 | 12565 ft | 11 kts | 307° |
| 2026-04-23 22:06 | -15.46571 | -70.16109 | 12566 ft | 3 kts | 180° |
| 2026-04-23 22:07 | -15.46595 | -70.16061 | 12565 ft | 13 kts | 108° |
| 2026-04-23 22:07 | -15.46637 | -70.15936 | 12564 ft | 24 kts | 110° |
| 2026-04-23 22:07 | -15.46713 | -70.15740 | 12563 ft | 30 kts | 112° |
| 2026-04-23 22:07 | -15.46820 | -70.15661 | 12562 ft | 16 kts | 200° |
| 2026-04-23 22:08 | -15.46895 | -70.15692 | 12563 ft | 2 kts | 201° |
| 2026-04-23 22:08 | -15.46920 | -70.15696 | 12563 ft | 2 kts | 175° |
| 2026-04-23 22:08 | -15.46932 | -70.15694 | 12563 ft | 0 kts | 174° |
| 2026-04-23 22:12 | -15.46933 | -70.15682 | 12563 ft | 7 kts | 86° |
| 2026-04-23 22:12 | -15.46933 | -70.15679 | 12563 ft | 0 kts | 86° |